Time;durP1;ratioP1;P1;durP2;ratioP2;P2;SDS_P1;SDS_P2;PMS_P1;PMS_P2;Temp;Humidity;BMP_temperature;BMP_pressure;BME280_temperature;BME280_humidity;BME280_pressure;Samples;Min_cycle;Max_cycle;Signal;HPM_P1;HPM_P2
2022/04/17 00:00:12;;;;;;;7.38;3.47;;;;;;;9.37;60.59;103019.09;5012373;28;20061;-70
2022/04/17 00:02:38;;;;;;;4.80;3.00;;;;;;;9.35;61.05;103012.84;5013315;28;20034;-69
2022/04/17 00:05:05;;;;;;;4.45;3.35;;;;;;;9.34;62.48;103011.00;5013237;28;20030;-70
2022/04/17 00:07:31;;;;;;;5.57;3.75;;;;;;;9.38;61.51;103015.63;5013280;28;20030;-70
2022/04/17 00:09:56;;;;;;;5.53;3.25;;;;;;;9.31;61.14;103015.22;5013563;28;20060;-70
2022/04/17 00:12:23;;;;;;;5.38;3.22;;;;;;;9.38;60.31;103006.84;5012608;28;20042;-69
2022/04/17 00:14:52;;;;;;;4.35;3.35;;;;;;;9.40;61.49;103008.75;5013184;28;20466;-70
2022/04/17 00:17:18;;;;;;;5.80;3.13;;;;;;;9.41;59.82;102997.41;5011889;28;20029;-70
2022/04/17 00:19:43;;;;;;;6.07;3.40;;;;;;;9.43;59.19;102998.41;5012209;28;20029;-70
2022/04/17 00:22:09;;;;;;;4.90;3.08;;;;;;;9.49;60.21;102984.69;5011682;28;20056;-70
2022/04/17 00:24:34;;;;;;;4.85;3.30;;;;;;;9.49;58.30;102989.06;5012244;28;20045;-70
2022/04/17 00:27:00;;;;;;;5.72;2.97;;;;;;;9.39;57.98;102988.53;5012431;28;20030;-70
2022/04/17 00:29:28;;;;;;;7.75;3.67;;;;;;;9.37;58.56;102987.56;5012699;28;20060;-70
2022/04/17 00:31:56;;;;;;;5.57;3.83;;;;;;;9.37;58.55;102984.00;5013145;28;20026;-70
2022/04/17 00:34:24;;;;;;;4.78;3.85;;;;;;;9.33;59.56;102990.81;5012226;28;20030;-70
2022/04/17 00:36:50;;;;;;;4.80;4.00;;;;;;;9.34;59.06;102978.59;5011941;28;20059;-70
2022/04/17 00:39:15;;;;;;;10.35;4.40;;;;;;;9.29;59.93;102983.56;5012827;28;20029;-70
2022/04/17 00:41:41;;;;;;;5.75;3.75;;;;;;;9.28;58.49;102976.53;5012494;28;20105;-69
2022/04/17 00:44:11;;;;;;;6.00;3.63;;;;;;;9.23;58.15;102971.00;5012207;28;20108;-70
2022/04/17 00:46:37;;;;;;;5.68;4.05;;;;;;;9.28;60.33;102973.91;5022383;28;20393;-70
2022/04/17 00:49:02;;;;;;;7.22;4.13;;;;;;;9.12;59.09;102972.13;5013486;28;20037;-69
2022/04/17 00:51:29;;;;;;;7.05;4.20;;;;;;;9.09;60.53;102972.84;5013136;28;20037;-70
2022/04/17 00:53:54;;;;;;;11.25;4.53;;;;;;;9.17;60.13;102975.00;5012345;28;20025;-70
2022/04/17 00:56:22;;;;;;;6.80;4.20;;;;;;;9.08;59.12;102971.03;5012113;28;20037;-70
2022/04/17 00:58:47;;;;;;;6.22;5.20;;;;;;;9.06;61.19;102971.75;5012394;28;20121;-69
2022/04/17 01:01:13;;;;;;;8.27;4.43;;;;;;;9.04;58.68;102974.31;5012523;28;20117;-70
2022/04/17 01:03:38;;;;;;;6.88;4.35;;;;;;;9.03;59.03;102969.84;4997492;28;20037;-70
2022/04/17 01:06:04;;;;;;;8.20;4.60;;;;;;;8.97;61.62;102977.41;5016465;28;20034;-70
2022/04/17 01:08:30;;;;;;;8.32;4.43;;;;;;;8.89;62.96;102976.06;5016385;28;20415;-70
2022/04/17 01:10:57;;;;;;;7.50;5.35;;;;;;;8.81;62.78;102979.97;5016094;28;20101;-70
2022/04/17 01:13:23;;;;;;;8.57;5.18;;;;;;;8.80;62.57;102978.16;5016178;28;20140;-69
2022/04/17 01:15:49;;;;;;;7.22;4.85;;;;;;;8.76;63.25;102971.81;5016226;28;20026;-69
2022/04/17 01:18:14;;;;;;;7.47;5.13;;;;;;;8.77;61.36;102964.00;5016177;28;20544;-69
2022/04/17 01:20:41;;;;;;;8.02;5.25;;;;;;;8.71;60.91;102953.16;5015385;28;20034;-69
2022/04/17 01:28:44;;;;;;;7.78;5.20;;;;;;;8.72;64.00;102965.50;4961916;28;20130;-69
2022/04/17 01:31:09;;;;;;;13.68;5.68;;;;;;;8.65;62.14;102968.53;5016691;28;20466;-69
2022/04/17 01:33:35;;;;;;;10.05;5.32;;;;;;;8.60;60.47;102960.41;5015524;28;20022;-70
2022/04/17 01:36:00;;;;;;;8.55;5.28;;;;;;;8.61;59.70;102956.06;5015642;28;20053;-69
2022/04/17 01:38:25;;;;;;;11.15;6.18;;;;;;;8.67;61.42;102960.75;5015343;28;20036;-69
2022/04/17 01:40:51;;;;;;;10.25;6.00;;;;;;;8.66;60.08;102953.72;5013911;28;20386;-70
2022/04/17 01:43:16;;;;;;;11.00;6.05;;;;;;;8.64;61.62;102964.13;5015671;28;20021;-69
2022/04/17 01:45:41;;;;;;;7.38;5.63;;;;;;;8.63;60.57;102959.69;5015910;28;20104;-70
2022/04/17 01:48:06;;;;;;;10.45;6.03;;;;;;;8.57;61.37;102956.69;5015587;28;20496;-69
2022/04/17 01:50:32;;;;;;;10.25;6.55;;;;;;;8.54;60.76;102953.91;5015046;28;20014;-70
2022/04/17 01:53:00;;;;;;;8.02;6.10;;;;;;;8.61;60.92;102956.06;5008792;28;20061;-69
2022/04/17 01:55:29;;;;;;;8.77;5.88;;;;;;;8.57;63.64;102954.06;5013723;28;20029;-70
2022/04/17 01:57:55;;;;;;;9.32;6.22;;;;;;;8.52;61.87;102958.13;5014916;28;20061;-69
2022/04/17 02:00:21;;;;;;;9.40;5.93;;;;;;;8.50;62.11;102955.44;5014796;28;20029;-69
2022/04/17 02:02:46;;;;;;;9.75;5.75;;;;;;;8.44;60.75;102947.19;5015168;28;20112;-70
2022/04/17 02:05:11;;;;;;;9.10;6.28;;;;;;;8.45;59.99;102954.28;5015470;28;20018;-70
2022/04/17 02:07:37;;;;;;;10.18;6.38;;;;;;;8.46;59.01;102949.91;5015234;28;20041;-70
2022/04/17 02:10:04;;;;;;;7.95;5.68;;;;;;;8.42;60.56;102944.47;5014753;28;20502;-70
2022/04/17 02:12:29;;;;;;;10.00;6.30;;;;;;;8.42;58.73;102944.47;4997709;28;20125;-70
2022/04/17 02:14:55;;;;;;;12.25;6.97;;;;;;;8.41;59.12;102942.66;5012357;28;20084;-69
2022/04/17 02:17:20;;;;;;;9.90;5.75;;;;;;;8.42;60.09;102944.47;5015416;28;20533;-69
2022/04/17 02:19:45;;;;;;;11.60;5.68;;;;;;;8.47;57.83;102936.00;5014608;28;20040;-70
2022/04/17 02:22:11;;;;;;;10.25;6.00;;;;;;;8.35;60.25;102937.03;5015094;28;20049;-70
2022/04/17 02:24:36;;;;;;;12.27;6.13;;;;;;;8.34;57.97;102935.25;5014255;28;20026;-69
2022/04/17 02:27:02;;;;;;;9.15;5.97;;;;;;;8.30;58.63;102930.59;5015082;28;20099;-70
2022/04/17 02:29:27;;;;;;;12.50;6.38;;;;;;;8.36;60.72;102936.22;5014630;28;20388;-69
2022/04/17 02:31:52;;;;;;;11.27;6.47;;;;;;;8.26;61.22;102936.47;5015074;28;20041;-70
2022/04/17 02:34:18;;;;;;;13.30;7.20;;;;;;;8.16;61.21;102929.78;5014189;28;20029;-70
2022/04/17 02:36:43;;;;;;;10.82;6.90;;;;;;;8.09;60.94;102927.59;5015096;28;20087;-69
2022/04/17 02:39:08;;;;;;;8.23;6.40;;;;;;;8.13;61.30;102929.59;5014712;28;20030;-69
2022/04/17 02:41:33;;;;;;;8.73;5.80;;;;;;;8.07;60.38;102923.97;5014812;28;20037;-69
2022/04/17 02:43:59;;;;;;;9.77;6.35;;;;;;;8.03;59.47;102922.91;5014502;28;20017;-70
2022/04/17 02:49:08;;;;;;;10.73;6.47;;;;;;;8.02;59.15;102926.31;5014564;28;20037;-70
2022/04/17 02:51:33;;;;;;;9.35;6.32;;;;;;;8.04;59.92;102922.06;5014738;28;20386;-69
2022/04/17 02:53:59;;;;;;;9.02;6.57;;;;;;;8.01;59.66;102921.88;5013786;28;20420;-69
2022/04/17 02:56:25;;;;;;;9.90;6.03;;;;;;;7.93;59.39;102915.28;5014241;28;20030;-70
2022/04/17 02:58:52;;;;;;;8.35;6.57;;;;;;;7.89;60.37;102908.03;5014102;28;20032;-69
2022/04/17 03:06:45;;;;;;;12.17;7.50;;;;;;;7.83;63.61;102912.94;5014295;28;19916;-69
2022/04/17 03:09:12;;;;;;;8.90;6.47;;;;;;;7.78;65.35;102914.34;5013504;28;20104;-70
2022/04/17 03:11:37;;;;;;;10.57;7.20;;;;;;;7.76;66.79;102923.03;5014193;28;20030;-69
2022/04/17 03:14:03;;;;;;;11.18;6.93;;;;;;;7.58;65.51;102930.66;5014439;28;20080;-69
2022/04/17 03:16:28;;;;;;;9.75;7.20;;;;;;;7.43;66.47;102920.13;4996589;28;20030;-70
2022/04/17 03:18:53;;;;;;;9.27;6.53;;;;;;;7.29;66.14;102918.34;5014177;28;20018;-69
2022/04/17 03:21:19;;;;;;;12.73;7.43;;;;;;;7.28;67.60;102920.84;5021901;28;20026;-69
2022/04/17 03:23:44;;;;;;;14.73;8.25;;;;;;;7.21;68.88;102919.56;5010567;28;20537;-70
2022/04/17 03:26:09;;;;;;;13.40;7.57;;;;;;;7.12;69.48;102918.97;5012785;28;20728;-69
2022/04/17 03:28:34;;;;;;;9.35;7.20;;;;;;;7.17;70.75;102912.31;5014166;28;20070;-69
2022/04/17 03:31:00;;;;;;;11.13;7.50;;;;;;;7.17;67.82;102910.59;4996262;28;20022;-69
2022/04/17 03:33:27;;;;;;;10.65;6.82;;;;;;;7.10;68.11;102911.00;5012759;28;20025;-69
2022/04/17 03:35:53;;;;;;;10.57;7.00;;;;;;;7.12;67.23;102908.50;4994139;28;20025;-69
2022/04/17 03:38:18;;;;;;;13.35;6.93;;;;;;;7.09;66.97;102911.81;5013436;28;20042;-69
2022/04/17 03:40:43;;;;;;;14.20;7.28;;;;;;;7.07;67.29;102910.81;5013666;28;20045;-69
2022/04/17 03:43:09;;;;;;;10.73;7.05;;;;;;;7.04;65.68;102906.31;5011948;28;20160;-70
2022/04/17 03:45:34;;;;;;;10.55;6.70;;;;;;;7.12;64.91;102898.03;4995813;28;20466;-69
2022/04/17 03:48:00;;;;;;;10.10;7.40;;;;;;;7.06;67.52;102907.28;5010535;28;20045;-70
2022/04/17 03:50:26;;;;;;;10.27;7.03;;;;;;;7.05;67.67;102905.50;4995817;28;20151;-70
2022/04/17 03:52:52;;;;;;;11.13;6.40;;;;;;;7.16;66.19;102902.66;5013353;28;20147;-70
2022/04/17 03:55:18;;;;;;;10.70;7.63;;;;;;;7.16;66.78;102894.78;5013602;28;20030;-70
2022/04/17 03:57:43;;;;;;;11.52;7.03;;;;;;;7.26;66.35;102897.19;5011682;28;20488;-68
2022/04/17 04:00:11;;;;;;;10.00;6.68;;;;;;;7.18;67.70;102896.69;5011010;28;20092;-68
2022/04/17 04:02:37;;;;;;;9.85;7.28;;;;;;;7.17;65.80;102896.59;5011548;28;20080;-68
2022/04/17 04:05:02;;;;;;;9.85;6.40;;;;;;;7.15;65.02;102891.28;5011962;28;20026;-68
2022/04/17 04:07:28;;;;;;;12.80;7.10;;;;;;;7.19;65.17;102887.13;4995517;28;20121;-68
2022/04/17 04:09:53;;;;;;;11.35;6.93;;;;;;;7.09;65.20;102890.88;5013113;28;20469;-68
2022/04/17 04:12:19;;;;;;;12.32;7.28;;;;;;;7.11;65.85;102888.34;4993845;28;20375;-69
2022/04/17 04:14:44;;;;;;;10.20;6.78;;;;;;;7.13;63.05;102885.03;5011754;28;20022;-69
2022/04/17 04:17:10;;;;;;;10.05;6.97;;;;;;;7.12;68.84;102879.69;4994207;28;20091;-70
2022/04/17 04:19:36;;;;;;;11.88;7.57;;;;;;;6.97;70.15;102888.38;5012599;28;20065;-70
2022/04/17 04:22:01;;;;;;;10.65;7.53;;;;;;;7.03;69.21;102886.16;5012289;28;20061;-70
2022/04/17 04:24:27;;;;;;;11.40;7.07;;;;;;;7.00;64.08;102877.19;5013108;28;20090;-70
2022/04/17 04:29:37;;;;;;;18.85;6.78;;;;;;;6.99;62.75;102876.28;5012463;28;20439;-70
2022/04/17 04:32:02;;;;;;;11.55;6.57;;;;;;;6.98;62.28;102868.34;5012693;28;20046;-70
2022/04/17 04:34:28;;;;;;;8.77;6.28;;;;;;;6.96;62.69;102864.72;5010727;28;20081;-70
2022/04/17 04:36:53;;;;;;;12.55;7.07;;;;;;;6.96;61.95;102865.63;5014522;28;20022;-70
2022/04/17 04:39:19;;;;;;;12.23;6.95;;;;;;;6.94;63.80;102856.78;5018466;28;20037;-70
2022/04/17 04:41:45;;;;;;;12.15;6.72;;;;;;;6.92;63.45;102856.69;5018491;28;20434;-69
2022/04/17 04:44:10;;;;;;;12.95;6.70;;;;;;;6.95;62.12;102855.97;5017369;28;20028;-68
2022/04/17 04:46:35;;;;;;;12.00;6.93;;;;;;;6.96;61.17;102862.09;5019364;28;20026;-69
2022/04/17 04:51:45;;;;;;;9.25;6.78;;;;;;;6.89;63.71;102855.56;5019134;28;20108;-69
2022/04/17 04:54:10;;;;;;;9.88;6.07;;;;;;;6.87;65.23;102858.09;5019917;28;20397;-69
2022/04/17 04:56:35;;;;;;;11.77;7.22;;;;;;;6.78;64.85;102859.22;5018992;28;20017;-69
2022/04/17 04:59:00;;;;;;;13.63;7.35;;;;;;;6.81;65.96;102864.63;5016853;28;20106;-69
2022/04/17 05:01:26;;;;;;;12.48;6.55;;;;;;;6.79;64.13;102851.47;5017328;28;20030;-69
2022/04/17 05:03:51;;;;;;;9.15;6.50;;;;;;;6.78;65.05;102869.69;5014655;28;20462;-69
2022/04/17 05:06:17;;;;;;;11.88;7.10;;;;;;;6.83;63.72;102868.28;5017413;28;20045;-69
2022/04/17 05:08:43;;;;;;;9.73;6.53;;;;;;;6.80;64.77;102861.13;5018468;28;20038;-70
2022/04/17 05:11:09;;;;;;;8.73;6.70;;;;;;;6.90;64.33;102865.22;5015769;28;20387;-69
2022/04/17 05:13:34;;;;;;;10.68;6.80;;;;;;;6.82;63.11;102859.50;5018087;28;20034;-69
2022/04/17 05:16:00;;;;;;;9.65;6.70;;;;;;;6.80;63.79;102868.97;5017996;28;20025;-69
2022/04/17 05:18:25;;;;;;;11.98;7.60;;;;;;;6.87;64.90;102862.44;4998625;28;20084;-69
2022/04/17 05:20:51;;;;;;;8.77;6.53;;;;;;;6.88;66.68;102867.75;5017776;28;20026;-69
2022/04/17 05:23:25;;;;;;;9.80;6.45;;;;;;;6.91;65.57;102861.81;5018858;28;20046;-68
2022/04/17 05:25:53;;;;;;;10.88;7.82;;;;;;;6.99;66.16;102876.28;5016580;28;20034;-69
2022/04/17 05:28:19;;;;;;;12.95;7.63;;;;;;;6.99;65.75;102883.25;5014934;28;20033;-69
2022/04/17 05:30:45;;;;;;;7.63;6.60;;;;;;;7.03;65.82;102869.56;4999410;28;21371;-69
2022/04/17 05:33:11;;;;;;;11.07;7.45;;;;;;;7.02;65.88;102871.25;5018149;28;20397;-69
2022/04/17 05:35:37;;;;;;;12.48;7.50;;;;;;;7.04;64.66;102869.66;4999850;28;20386;-69
2022/04/17 05:38:03;;;;;;;10.73;7.32;;;;;;;7.05;65.56;102874.09;5017438;28;20378;-69
2022/04/17 05:40:32;;;;;;;9.10;7.13;;;;;;;6.98;64.41;102871.84;5018680;28;20030;-69
2022/04/17 05:42:58;;;;;;;10.05;7.45;;;;;;;7.00;66.50;102872.88;5016389;28;20069;-69
2022/04/17 05:45:23;;;;;;;9.32;6.97;;;;;;;7.01;64.08;102872.09;5018865;28;20386;-69
2022/04/17 05:47:49;;;;;;;11.15;8.07;;;;;;;6.96;64.60;102869.94;5018121;28;20069;-69
2022/04/17 05:50:14;;;;;;;10.05;7.38;;;;;;;6.94;64.72;102872.47;4996602;28;20112;-69
2022/04/17 05:52:41;;;;;;;9.95;7.20;;;;;;;6.95;65.26;102874.28;5015244;28;20089;-69
2022/04/17 05:55:09;;;;;;;10.95;7.28;;;;;;;6.96;65.04;102878.72;5015527;28;20048;-69
2022/04/17 05:57:35;;;;;;;10.57;7.32;;;;;;;6.98;65.30;102879.72;5014735;28;20045;-69
2022/04/17 06:00:01;;;;;;;9.35;7.20;;;;;;;7.00;64.42;102883.34;4992940;28;20470;-70
2022/04/17 06:02:27;;;;;;;12.50;7.22;;;;;;;7.02;63.62;102876.47;5003229;28;20478;-69
2022/04/17 06:04:53;;;;;;;13.73;8.23;;;;;;;7.01;63.81;102873.78;4992183;28;20034;-69
2022/04/17 06:07:28;;;;;;;9.90;7.35;;;;;;;7.05;63.91;102876.72;4997184;28;20484;-69
2022/04/17 06:09:54;;;;;;;10.50;7.22;;;;;;;7.08;63.11;102879.50;5014474;28;20018;-70
2022/04/17 06:12:19;;;;;;;12.52;7.45;;;;;;;7.06;63.69;102878.50;4996822;28;20040;-71
2022/04/17 06:14:45;;;;;;;13.90;7.38;;;;;;;7.09;63.38;102872.53;5015133;28;20473;-67
2022/04/17 06:17:10;;;;;;;10.57;7.35;;;;;;;7.15;63.61;102874.63;5015206;28;20084;-67
2022/04/17 06:19:36;;;;;;;15.32;7.28;;;;;;;7.21;63.26;102872.44;5014732;28;20127;-68
2022/04/17 06:22:01;;;;;;;13.25;7.72;;;;;;;7.26;62.89;102878.88;5014599;28;20072;-69
2022/04/17 06:24:27;;;;;;;9.63;7.57;;;;;;;7.34;63.15;102875.00;5013182;28;20406;-68
2022/04/17 06:26:52;;;;;;;9.98;7.13;;;;;;;7.36;62.92;102877.72;5012759;28;20021;-69
2022/04/17 06:29:19;;;;;;;10.95;7.82;;;;;;;7.37;63.92;102874.31;5015768;28;20037;-69
2022/04/17 06:31:45;;;;;;;12.20;7.13;;;;;;;7.40;63.65;102879.72;5015281;28;20052;-69
2022/04/17 06:34:12;;;;;;;12.10;7.40;;;;;;;7.41;63.39;102885.06;4996938;28;20034;-67
2022/04/17 06:36:38;;;;;;;10.57;7.35;;;;;;;7.48;63.03;102872.34;5011985;28;20412;-68
2022/04/17 06:39:03;;;;;;;13.40;7.32;;;;;;;7.53;63.80;102876.16;5013245;28;20025;-68
2022/04/17 06:41:29;;;;;;;9.73;7.20;;;;;;;7.59;62.76;102868.66;5013132;28;20429;-69
2022/04/17 06:43:54;;;;;;;8.93;7.28;;;;;;;7.62;62.67;102868.84;5011639;28;20104;-69
2022/04/17 06:46:20;;;;;;;14.40;7.90;;;;;;;7.65;63.65;102862.91;5012428;28;20033;-69
2022/04/17 06:48:45;;;;;;;9.27;6.80;;;;;;;7.71;63.37;102864.16;5011954;28;20041;-69
2022/04/17 06:51:11;;;;;;;10.48;6.93;;;;;;;7.76;62.67;102861.84;5013097;28;20018;-69
2022/04/17 06:53:36;;;;;;;8.55;6.38;;;;;;;7.82;62.45;102863.94;5012689;28;20041;-68
2022/04/17 06:56:01;;;;;;;10.90;6.75;;;;;;;7.88;62.25;102864.28;4997857;28;20355;-68
2022/04/17 06:58:26;;;;;;;9.60;7.15;;;;;;;7.95;63.65;102858.63;5014199;28;20375;-68
2022/04/17 07:00:52;;;;;;;8.88;6.75;;;;;;;8.00;62.54;102864.13;5011911;28;20045;-68
2022/04/17 07:03:17;;;;;;;10.52;6.93;;;;;;;8.07;61.66;102861.03;5013985;28;20018;-69
2022/04/17 07:05:43;;;;;;;7.80;6.35;;;;;;;8.10;61.46;102858.63;5013774;28;20500;-70
2022/04/17 07:08:09;;;;;;;11.10;6.80;;;;;;;8.13;62.09;102855.28;5016456;28;20038;-68
2022/04/17 07:10:39;;;;;;;10.55;7.05;;;;;;;8.21;61.32;102860.16;5012991;28;20461;-69
2022/04/17 07:13:06;;;;;;;10.57;6.93;;;;;;;8.27;61.01;102854.34;4995454;28;20453;-69
2022/04/17 07:15:32;;;;;;;11.20;6.72;;;;;;;8.35;62.35;102853.09;5011238;28;20088;-69
2022/04/17 07:17:57;;;;;;;8.80;6.97;;;;;;;8.41;61.16;102855.16;5010994;28;20021;-69
2022/04/17 07:20:24;;;;;;;9.05;6.53;;;;;;;8.47;61.62;102857.28;4994968;28;20116;-68
2022/04/17 07:22:50;;;;;;;9.85;7.22;;;;;;;8.53;60.83;102853.31;5010771;28;20111;-69
2022/04/17 07:25:16;;;;;;;11.75;6.93;;;;;;;8.62;60.88;102852.00;4978286;28;20120;-69
2022/04/17 07:27:43;;;;;;;9.82;6.25;;;;;;;8.63;61.05;102852.09;5013594;28;20037;-70
2022/04/17 07:30:16;;;;;;;9.18;6.20;;;;;;;8.70;61.99;102846.38;5012624;28;20140;-69
2022/04/17 07:32:44;;;;;;;9.95;6.25;;;;;;;8.76;60.87;102844.09;5007129;28;20026;-70
2022/04/17 07:35:11;;;;;;;10.02;6.50;;;;;;;8.83;60.03;102847.06;5014160;28;20463;-70
2022/04/17 07:37:37;;;;;;;13.80;6.53;;;;;;;8.91;60.12;102845.75;5012083;28;20025;-69
2022/04/17 07:40:19;;;;;;;10.20;6.55;;;;;;;8.96;61.12;102843.41;5010356;28;20061;-69
2022/04/17 07:42:44;;;;;;;7.75;6.03;;;;;;;9.08;60.14;102846.72;4992950;28;20512;-68
2022/04/17 07:45:11;;;;;;;8.60;6.75;;;;;;;9.15;58.61;102838.34;4993929;28;20033;-69
2022/04/17 07:47:36;;;;;;;12.13;6.22;;;;;;;9.24;58.38;102840.56;4994688;28;20506;-69
2022/04/17 07:50:03;;;;;;;9.50;6.82;;;;;;;9.31;59.13;102836.56;5012877;28;20045;-69
2022/04/17 07:52:28;;;;;;;9.43;5.43;;;;;;;9.38;58.98;102838.69;5011699;28;20462;-69
2022/04/17 07:54:54;;;;;;;11.38;6.28;;;;;;;9.45;58.87;102831.22;5013261;28;20026;-68
2022/04/17 07:57:19;;;;;;;7.82;6.00;;;;;;;9.60;59.23;102835.47;5013381;28;20092;-69
2022/04/17 07:59:45;;;;;;;11.00;6.65;;;;;;;9.72;59.70;102838.72;5012197;28;20382;-69
2022/04/17 08:02:28;;;;;;;9.43;6.10;;;;;;;9.87;57.80;102835.09;5011893;28;20104;-69
2022/04/17 08:04:54;;;;;;;7.17;5.93;;;;;;;9.90;56.49;102832.63;5005247;28;20022;-69
2022/04/17 08:07:20;;;;;;;8.48;6.25;;;;;;;9.98;57.06;102827.75;5013273;28;20091;-69
2022/04/17 08:09:46;;;;;;;9.38;5.95;;;;;;;10.06;57.50;102824.69;5013146;28;20029;-69
2022/04/17 08:12:11;;;;;;;7.78;5.88;;;;;;;10.15;57.78;102831.22;5012209;28;20084;-69
2022/04/17 08:14:37;;;;;;;11.55;6.18;;;;;;;10.22;56.69;102828.09;5013046;28;20022;-69
2022/04/17 08:17:02;;;;;;;6.25;5.53;;;;;;;10.34;56.76;102827.81;5012433;28;20521;-69
2022/04/17 08:19:29;;;;;;;8.45;6.30;;;;;;;10.45;56.33;102831.91;4994817;28;20389;-69
2022/04/17 08:21:55;;;;;;;7.70;6.35;;;;;;;10.50;56.52;102824.22;5012048;28;20100;-70
2022/04/17 08:24:21;;;;;;;10.18;5.80;;;;;;;10.59;56.54;102825.59;5001184;28;20066;-68
2022/04/17 08:26:46;;;;;;;8.00;6.22;;;;;;;10.67;56.09;102818.03;5011744;28;20025;-69
2022/04/17 08:29:11;;;;;;;7.10;6.22;;;;;;;10.75;54.68;102821.94;5012917;28;20461;-68
2022/04/17 08:31:37;;;;;;;8.32;5.90;;;;;;;10.80;55.48;102817.81;5012758;28;20076;-69
2022/04/17 08:34:03;;;;;;;7.93;6.20;;;;;;;10.93;56.87;102818.38;5013025;28;20371;-69
2022/04/17 08:36:28;;;;;;;8.50;5.63;;;;;;;11.08;55.83;102818.19;5012598;28;20030;-70
2022/04/17 08:38:53;;;;;;;6.05;5.45;;;;;;;11.26;55.10;102821.69;5012578;28;20029;-69
2022/04/17 08:41:21;;;;;;;47.78;7.72;;;;;;;11.39;55.88;102812.59;4994597;28;20030;-70
2022/04/17 08:43:47;;;;;;;8.50;6.28;;;;;;;11.53;54.33;102814.94;5016118;28;20021;-69
2022/04/17 08:46:12;;;;;;;16.10;6.13;;;;;;;11.68;54.34;102815.63;5014370;28;20121;-69
2022/04/17 08:48:38;;;;;;;10.10;6.30;;;;;;;11.85;53.98;102807.53;5011277;28;20029;-68
2022/04/17 08:51:05;;;;;;;6.68;5.28;;;;;;;11.97;54.38;102802.81;5011536;28;20022;-68
2022/04/17 08:53:33;;;;;;;9.40;5.63;;;;;;;12.04;52.48;102807.50;4991389;28;20076;-68
2022/04/17 08:55:58;;;;;;;6.80;5.22;;;;;;;12.23;51.45;102806.53;4991932;28;20026;-68
2022/04/17 08:58:24;;;;;;;29.35;7.07;;;;;;;12.38;51.56;102802.75;5010921;28;20477;-68
2022/04/17 09:00:50;;;;;;;7.75;5.20;;;;;;;12.51;49.83;102796.19;4994849;28;20018;-69
2022/04/17 09:03:15;;;;;;;8.10;5.47;;;;;;;12.55;48.25;102795.50;5009955;28;20042;-66
2022/04/17 09:05:41;;;;;;;10.30;5.40;;;;;;;12.64;50.36;102788.84;5011531;28;20025;-68
2022/04/17 09:08:15;;;;;;;5.78;4.80;;;;;;;12.71;47.77;102790.00;5011060;28;20044;-68
2022/04/17 09:10:50;;;;;;;5.55;4.70;;;;;;;12.74;47.05;102789.22;5013075;28;20074;-68
2022/04/17 09:13:26;;;;;;;8.85;4.63;;;;;;;12.82;46.99;102780.72;5012470;28;20028;-68
2022/04/17 09:15:51;;;;;;;7.40;4.72;;;;;;;12.92;45.75;102778.44;5011057;28;20021;-68
2022/04/17 09:18:17;;;;;;;5.95;4.70;;;;;;;13.03;45.79;102774.44;5012326;28;20474;-67
2022/04/17 09:20:46;;;;;;;5.75;4.57;;;;;;;13.14;45.10;102773.13;5011635;28;20463;-68
2022/04/17 09:23:12;;;;;;;9.65;5.00;;;;;;;13.21;45.09;102773.34;5010224;28;20112;-67
2022/04/17 09:25:37;;;;;;;5.68;4.22;;;;;;;13.32;45.63;102775.53;5015705;28;20474;-68
2022/04/17 09:28:07;;;;;;;8.25;5.43;;;;;;;13.39;45.32;102771.41;4998821;28;20398;-67
2022/04/17 09:30:35;;;;;;;6.07;4.75;;;;;;;13.49;44.72;102757.66;5010689;28;20038;-67
2022/04/17 09:33:13;;;;;;;6.05;4.82;;;;;;;13.71;44.49;102768.97;5015692;28;20022;-68
2022/04/17 09:35:39;;;;;;;9.45;4.97;;;;;;;13.83;45.66;102769.41;5015776;28;20038;-68
2022/04/17 09:38:06;;;;;;;6.07;4.40;;;;;;;13.93;44.51;102767.06;5014287;28;20033;-68
2022/04/17 09:40:33;;;;;;;5.30;4.47;;;;;;;14.10;44.80;102757.94;5015693;28;20062;-68
2022/04/17 09:43:07;;;;;;;5.78;4.53;;;;;;;14.14;43.94;102754.53;5014873;28;20393;-68
2022/04/17 09:45:32;;;;;;;7.57;4.95;;;;;;;14.32;44.79;102753.34;5013332;28;20542;-68
2022/04/17 09:47:58;;;;;;;5.05;4.53;;;;;;;14.46;43.71;102752.03;5013198;28;20105;-67
2022/04/17 09:50:32;;;;;;;5.78;4.25;;;;;;;14.72;44.81;102756.34;5015000;28;20474;-68
2022/04/17 09:52:59;;;;;;;4.53;4.13;;;;;;;14.86;45.87;102748.84;5016154;28;20029;-67
2022/04/17 09:55:28;;;;;;;5.63;4.50;;;;;;;15.05;42.95;102748.50;4998314;28;20025;-68
2022/04/17 09:57:58;;;;;;;8.73;5.30;;;;;;;15.12;44.11;102739.84;5015441;28;20061;-68
2022/04/17 10:00:25;;;;;;;5.53;5.03;;;;;;;15.15;42.07;102729.34;5012337;28;20268;-69
2022/04/17 10:02:51;;;;;;;5.75;4.53;;;;;;;15.42;43.97;102730.94;5014052;28;20109;-70
2022/04/17 10:05:20;;;;;;;8.48;4.93;;;;;;;15.46;43.85;102722.25;5013315;28;20160;-69
2022/04/17 10:07:47;;;;;;;14.75;4.97;;;;;;;15.68;43.63;102722.78;5013875;28;20084;-69
2022/04/17 10:10:14;;;;;;;13.88;5.57;;;;;;;15.85;42.53;102716.16;5012666;28;20549;-70
2022/04/17 10:12:42;;;;;;;19.85;5.22;;;;;;;16.03;41.47;102722.78;5012760;28;20105;-69
2022/04/17 10:15:08;;;;;;;23.25;5.78;;;;;;;15.97;44.20;102715.56;5012889;28;20532;-67
2022/04/17 10:17:38;;;;;;;7.10;5.03;;;;;;;16.15;41.16;102712.44;5012931;28;20022;-69
2022/04/17 10:20:08;;;;;;;6.65;4.75;;;;;;;16.38;42.64;102711.22;4997289;28;20022;-69
2022/04/17 10:22:34;;;;;;;5.55;5.00;;;;;;;16.38;39.16;102708.56;4976891;28;20061;-70
2022/04/17 10:25:02;;;;;;;8.88;5.05;;;;;;;16.41;40.09;102703.28;4994554;28;20410;-70
2022/04/17 10:27:35;;;;;;;6.68;4.57;;;;;;;16.52;40.43;102694.72;4991907;28;20033;-70
2022/04/17 10:30:21;;;;;;;6.85;4.72;;;;;;;16.67;43.61;102699.44;4992155;28;20019;-69
2022/04/17 10:33:01;;;;;;;49.53;7.28;;;;;;;16.94;41.05;102702.66;4993144;28;20074;-70
2022/04/17 10:35:39;;;;;;;5.63;4.63;;;;;;;17.10;39.71;102694.13;4991773;28;20418;-70
2022/04/17 10:38:22;;;;;;;5.47;4.30;;;;;;;17.26;35.79;102681.13;4993995;28;20104;-71
2022/04/17 10:41:07;;;;;;;7.15;4.55;;;;;;;17.38;37.65;102683.09;4987639;28;20030;-69
2022/04/17 10:43:56;;;;;;;5.88;4.40;;;;;;;17.52;38.30;102681.56;4995589;28;20076;-68
2022/04/17 10:46:22;;;;;;;6.53;3.60;;;;;;;17.69;34.61;102671.22;4993618;28;20030;-68
2022/04/17 10:48:49;;;;;;;6.90;3.78;;;;;;;17.69;34.00;102660.56;4992647;28;20030;-69
2022/04/17 10:51:25;;;;;;;7.28;4.13;;;;;;;17.81;36.04;102665.19;4993322;28;20022;-70
2022/04/17 10:54:10;;;;;;;6.45;5.35;;;;;;;17.75;35.49;102658.00;4991578;28;20033;-68
2022/04/17 10:56:41;;;;;;;6.43;3.50;;;;;;;18.03;35.52;102642.47;4992140;28;20029;-68
2022/04/17 10:59:26;;;;;;;4.28;3.45;;;;;;;18.11;32.23;102639.91;4994216;28;20026;-68
2022/04/17 11:02:00;;;;;;;5.22;4.07;;;;;;;18.22;32.65;102630.31;4991614;28;20060;-69
2022/04/17 11:04:30;;;;;;;5.68;3.80;;;;;;;18.63;33.52;102634.38;4992162;28;20031;-68
2022/04/17 11:07:09;;;;;;;6.10;3.90;;;;;;;18.83;34.41;102630.16;4999152;28;20113;-68
2022/04/17 11:09:42;;;;;;;4.65;3.58;;;;;;;19.03;32.82;102627.72;4984414;28;20117;-68
2022/04/17 11:12:10;;;;;;;;;;;;;;;19.16;31.61;102628.72;4994130;28;20398;-69
2022/04/17 11:14:38;;;;;;;5.60;3.10;;;;;;;19.28;29.59;102608.38;4993453;28;19918;-68
2022/04/17 11:17:08;;;;;;;4.80;3.50;;;;;;;19.28;28.26;102605.72;4992639;28;20483;-70
2022/04/17 11:19:35;;;;;;;4.35;3.50;;;;;;;19.23;29.19;102607.44;4993670;28;20022;-69
2022/04/17 11:22:04;;;;;;;6.55;3.53;;;;;;;19.32;28.29;102602.19;4994385;28;20421;-69
2022/04/17 11:24:55;;;;;;;6.32;3.20;;;;;;;19.40;27.73;102588.88;5011841;28;20113;-69
2022/04/17 11:27:32;;;;;;;4.55;3.55;;;;;;;19.50;29.49;102590.75;5012160;28;20099;-68
2022/04/17 11:30:02;;;;;;;5.72;3.92;;;;;;;19.90;32.50;102600.84;5013345;28;20026;-69
2022/04/17 11:32:28;;;;;;;8.00;3.88;;;;;;;20.21;31.62;102602.78;4995610;28;20033;-69
2022/04/17 11:34:54;;;;;;;4.72;3.90;;;;;;;20.74;28.89;102597.66;5013108;28;20497;-69
2022/04/17 11:37:26;;;;;;;3.92;3.55;;;;;;;21.00;26.41;102580.75;5010966;28;20029;-69
2022/04/17 11:39:53;;;;;;;3.67;3.25;;;;;;;21.08;26.00;102576.28;5011844;28;20113;-67
2022/04/17 11:42:19;;;;;;;4.15;3.67;;;;;;;20.86;26.12;102565.56;5012476;28;20444;-67
2022/04/17 11:44:46;;;;;;;5.60;3.50;;;;;;;20.91;25.59;102562.00;5011823;28;20113;-67